sensor_id;sensor_type;location;lat;lon;timestamp;P1;durP1;ratioP1;P2;durP2;ratioP2
27305;SDS011;14792;50.886;6.468;2022-09-09T00:02:35;2.25;;;0.70;;
27305;SDS011;14792;50.886;6.468;2022-09-09T00:05:42;4.08;;;0.98;;
27305;SDS011;14792;50.886;6.468;2022-09-09T00:12:13;5.12;;;1.35;;
27305;SDS011;14792;50.886;6.468;2022-09-09T00:15:15;3.58;;;1.00;;
27305;SDS011;14792;50.886;6.468;2022-09-09T00:22:30;2.92;;;0.85;;
27305;SDS011;14792;50.886;6.468;2022-09-09T00:24:49;2.42;;;0.62;;
27305;SDS011;14792;50.886;6.468;2022-09-09T00:27:48;5.15;;;0.98;;
27305;SDS011;14792;50.886;6.468;2022-09-09T00:30:48;3.75;;;0.80;;
27305;SDS011;14792;50.886;6.468;2022-09-09T00:33:50;4.80;;;0.90;;
27305;SDS011;14792;50.886;6.468;2022-09-09T00:36:52;3.08;;;0.65;;
27305;SDS011;14792;50.886;6.468;2022-09-09T00:39:53;2.12;;;0.70;;
27305;SDS011;14792;50.886;6.468;2022-09-09T00:43:01;5.75;;;0.70;;
27305;SDS011;14792;50.886;6.468;2022-09-09T00:49:18;3.95;;;0.80;;
27305;SDS011;14792;50.886;6.468;2022-09-09T00:58:34;6.62;;;0.85;;
27305;SDS011;14792;50.886;6.468;2022-09-09T01:01:36;3.05;;;0.85;;
27305;SDS011;14792;50.886;6.468;2022-09-09T01:04:37;2.75;;;0.90;;
27305;SDS011;14792;50.886;6.468;2022-09-09T01:07:39;1.70;;;0.72;;
27305;SDS011;14792;50.886;6.468;2022-09-09T01:13:56;2.75;;;0.78;;
27305;SDS011;14792;50.886;6.468;2022-09-09T01:16:55;2.47;;;0.72;;
27305;SDS011;14792;50.886;6.468;2022-09-09T01:20:13;8.03;;;0.93;;
27305;SDS011;14792;50.886;6.468;2022-09-09T01:26:18;3.55;;;0.78;;
27305;SDS011;14792;50.886;6.468;2022-09-09T01:29:19;3.35;;;0.90;;
27305;SDS011;14792;50.886;6.468;2022-09-09T01:32:40;4.12;;;1.07;;
27305;SDS011;14792;50.886;6.468;2022-09-09T01:35:45;3.75;;;1.05;;
27305;SDS011;14792;50.886;6.468;2022-09-09T01:38:53;7.67;;;0.90;;
27305;SDS011;14792;50.886;6.468;2022-09-09T01:41:55;2.42;;;0.90;;
27305;SDS011;14792;50.886;6.468;2022-09-09T01:44:56;4.45;;;1.02;;
27305;SDS011;14792;50.886;6.468;2022-09-09T01:47:58;2.85;;;0.98;;
27305;SDS011;14792;50.886;6.468;2022-09-09T01:51:00;5.78;;;1.40;;
27305;SDS011;14792;50.886;6.468;2022-09-09T01:54:01;5.10;;;1.15;;
27305;SDS011;14792;50.886;6.468;2022-09-09T01:57:11;5.20;;;1.20;;
27305;SDS011;14792;50.886;6.468;2022-09-09T02:00:19;5.45;;;1.40;;
27305;SDS011;14792;50.886;6.468;2022-09-09T02:03:23;5.35;;;1.45;;
27305;SDS011;14792;50.886;6.468;2022-09-09T02:06:25;5.92;;;1.30;;
27305;SDS011;14792;50.886;6.468;2022-09-09T02:09:25;4.55;;;1.20;;
27305;SDS011;14792;50.886;6.468;2022-09-09T02:12:25;7.97;;;1.50;;
27305;SDS011;14792;50.886;6.468;2022-09-09T02:15:34;6.15;;;1.65;;
27305;SDS011;14792;50.886;6.468;2022-09-09T02:18:51;7.22;;;1.50;;
27305;SDS011;14792;50.886;6.468;2022-09-09T02:22:10;5.78;;;1.27;;
27305;SDS011;14792;50.886;6.468;2022-09-09T02:25:14;7.20;;;1.60;;
27305;SDS011;14792;50.886;6.468;2022-09-09T02:28:13;5.58;;;1.70;;
27305;SDS011;14792;50.886;6.468;2022-09-09T02:31:16;7.65;;;1.42;;
27305;SDS011;14792;50.886;6.468;2022-09-09T02:34:17;9.68;;;2.17;;
27305;SDS011;14792;50.886;6.468;2022-09-09T02:37:19;5.60;;;1.55;;
27305;SDS011;14792;50.886;6.468;2022-09-09T02:40:20;7.80;;;1.55;;
27305;SDS011;14792;50.886;6.468;2022-09-09T02:43:21;5.67;;;1.40;;
27305;SDS011;14792;50.886;6.468;2022-09-09T02:47:01;7.80;;;1.40;;
27305;SDS011;14792;50.886;6.468;2022-09-09T02:53:25;4.05;;;1.72;;
27305;SDS011;14792;50.886;6.468;2022-09-09T02:56:27;7.85;;;1.72;;
27305;SDS011;14792;50.886;6.468;2022-09-09T02:59:27;9.95;;;2.08;;
27305;SDS011;14792;50.886;6.468;2022-09-09T03:02:29;6.08;;;1.50;;
27305;SDS011;14792;50.886;6.468;2022-09-09T03:05:30;6.72;;;1.70;;
27305;SDS011;14792;50.886;6.468;2022-09-09T03:08:32;6.83;;;1.55;;
27305;SDS011;14792;50.886;6.468;2022-09-09T03:11:34;6.97;;;1.65;;
27305;SDS011;14792;50.886;6.468;2022-09-09T03:14:35;9.45;;;1.60;;
27305;SDS011;14792;50.886;6.468;2022-09-09T03:17:37;10.68;;;2.30;;
27305;SDS011;14792;50.886;6.468;2022-09-09T03:20:38;6.20;;;1.60;;
27305;SDS011;14792;50.886;6.468;2022-09-09T03:23:40;7.62;;;1.62;;
27305;SDS011;14792;50.886;6.468;2022-09-09T03:26:42;9.60;;;2.50;;
27305;SDS011;14792;50.886;6.468;2022-09-09T03:29:43;5.83;;;1.30;;
27305;SDS011;14792;50.886;6.468;2022-09-09T03:32:45;5.53;;;1.45;;
27305;SDS011;14792;50.886;6.468;2022-09-09T03:35:46;8.98;;;1.80;;
27305;SDS011;14792;50.886;6.468;2022-09-09T03:38:50;5.72;;;1.70;;
27305;SDS011;14792;50.886;6.468;2022-09-09T03:41:52;6.95;;;1.60;;
27305;SDS011;14792;50.886;6.468;2022-09-09T03:44:53;8.43;;;1.60;;
27305;SDS011;14792;50.886;6.468;2022-09-09T03:47:55;11.12;;;1.60;;
27305;SDS011;14792;50.886;6.468;2022-09-09T03:50:57;4.53;;;1.32;;
27305;SDS011;14792;50.886;6.468;2022-09-09T03:53:58;4.53;;;1.90;;
27305;SDS011;14792;50.886;6.468;2022-09-09T03:57:00;9.30;;;2.00;;
27305;SDS011;14792;50.886;6.468;2022-09-09T04:00:03;6.92;;;1.70;;
27305;SDS011;14792;50.886;6.468;2022-09-09T04:03:06;5.67;;;1.70;;
27305;SDS011;14792;50.886;6.468;2022-09-09T04:06:08;7.35;;;1.57;;
27305;SDS011;14792;50.886;6.468;2022-09-09T04:09:09;7.90;;;1.60;;
27305;SDS011;14792;50.886;6.468;2022-09-09T04:12:10;7.47;;;1.98;;
27305;SDS011;14792;50.886;6.468;2022-09-09T04:15:12;8.30;;;2.00;;
27305;SDS011;14792;50.886;6.468;2022-09-09T04:18:13;10.40;;;2.20;;
27305;SDS011;14792;50.886;6.468;2022-09-09T04:21:15;8.65;;;2.00;;
27305;SDS011;14792;50.886;6.468;2022-09-09T04:24:17;9.90;;;1.72;;
27305;SDS011;14792;50.886;6.468;2022-09-09T04:27:18;7.10;;;1.98;;
27305;SDS011;14792;50.886;6.468;2022-09-09T04:30:20;8.08;;;1.75;;
27305;SDS011;14792;50.886;6.468;2022-09-09T04:33:23;6.47;;;1.67;;
27305;SDS011;14792;50.886;6.468;2022-09-09T04:36:23;6.58;;;1.77;;
27305;SDS011;14792;50.886;6.468;2022-09-09T04:39:25;7.15;;;1.80;;
27305;SDS011;14792;50.886;6.468;2022-09-09T04:42:26;9.88;;;2.10;;
27305;SDS011;14792;50.886;6.468;2022-09-09T04:45:28;6.87;;;1.70;;
27305;SDS011;14792;50.886;6.468;2022-09-09T04:48:29;5.67;;;1.87;;
27305;SDS011;14792;50.886;6.468;2022-09-09T04:51:31;10.18;;;1.75;;
27305;SDS011;14792;50.886;6.468;2022-09-09T04:54:32;7.47;;;1.87;;
27305;SDS011;14792;50.886;6.468;2022-09-09T04:57:34;8.03;;;1.90;;
27305;SDS011;14792;50.886;6.468;2022-09-09T05:00:36;8.13;;;1.75;;
27305;SDS011;14792;50.886;6.468;2022-09-09T05:03:37;10.38;;;2.35;;
27305;SDS011;14792;50.886;6.468;2022-09-09T05:06:39;9.05;;;2.30;;
27305;SDS011;14792;50.886;6.468;2022-09-09T05:09:40;9.20;;;2.42;;
27305;SDS011;14792;50.886;6.468;2022-09-09T05:12:42;6.83;;;2.05;;
27305;SDS011;14792;50.886;6.468;2022-09-09T05:15:51;7.97;;;1.72;;
27305;SDS011;14792;50.886;6.468;2022-09-09T05:18:45;9.08;;;2.15;;
27305;SDS011;14792;50.886;6.468;2022-09-09T05:21:47;10.60;;;2.25;;
27305;SDS011;14792;50.886;6.468;2022-09-09T05:24:49;4.50;;;1.70;;
27305;SDS011;14792;50.886;6.468;2022-09-09T05:27:50;10.40;;;1.90;;
27305;SDS011;14792;50.886;6.468;2022-09-09T05:30:57;9.70;;;2.10;;
27305;SDS011;14792;50.886;6.468;2022-09-09T05:34:02;7.70;;;1.85;;
27305;SDS011;14792;50.886;6.468;2022-09-09T05:37:03;9.95;;;1.98;;
27305;SDS011;14792;50.886;6.468;2022-09-09T05:40:05;11.53;;;2.30;;
27305;SDS011;14792;50.886;6.468;2022-09-09T05:43:07;7.85;;;1.90;;
27305;SDS011;14792;50.886;6.468;2022-09-09T05:46:09;8.80;;;1.60;;
27305;SDS011;14792;50.886;6.468;2022-09-09T05:49:10;7.15;;;2.22;;
27305;SDS011;14792;50.886;6.468;2022-09-09T05:52:11;7.60;;;1.90;;
27305;SDS011;14792;50.886;6.468;2022-09-09T05:55:13;10.50;;;1.67;;
27305;SDS011;14792;50.886;6.468;2022-09-09T05:58:14;9.23;;;1.70;;
27305;SDS011;14792;50.886;6.468;2022-09-09T06:01:17;8.43;;;1.52;;
27305;SDS011;14792;50.886;6.468;2022-09-09T06:04:18;7.72;;;1.77;;
27305;SDS011;14792;50.886;6.468;2022-09-09T06:07:19;8.80;;;1.52;;
27305;SDS011;14792;50.886;6.468;2022-09-09T06:10:21;12.00;;;2.02;;
27305;SDS011;14792;50.886;6.468;2022-09-09T06:13:22;7.87;;;1.50;;
27305;SDS011;14792;50.886;6.468;2022-09-09T06:16:25;5.95;;;1.50;;
27305;SDS011;14792;50.886;6.468;2022-09-09T06:19:26;7.22;;;1.72;;
27305;SDS011;14792;50.886;6.468;2022-09-09T06:22:27;5.10;;;1.20;;
27305;SDS011;14792;50.886;6.468;2022-09-09T06:25:29;7.10;;;1.45;;
27305;SDS011;14792;50.886;6.468;2022-09-09T06:28:31;6.80;;;1.27;;
27305;SDS011;14792;50.886;6.468;2022-09-09T06:31:35;5.25;;;1.30;;
27305;SDS011;14792;50.886;6.468;2022-09-09T06:34:36;8.55;;;1.65;;
27305;SDS011;14792;50.886;6.468;2022-09-09T06:37:38;10.32;;;1.67;;
27305;SDS011;14792;50.886;6.468;2022-09-09T06:40:39;8.60;;;1.50;;
27305;SDS011;14792;50.886;6.468;2022-09-09T06:43:41;9.08;;;1.67;;
27305;SDS011;14792;50.886;6.468;2022-09-09T06:46:43;5.83;;;1.60;;
27305;SDS011;14792;50.886;6.468;2022-09-09T06:49:44;9.18;;;1.77;;
27305;SDS011;14792;50.886;6.468;2022-09-09T06:52:46;6.53;;;1.77;;
27305;SDS011;14792;50.886;6.468;2022-09-09T06:55:47;7.15;;;1.62;;
27305;SDS011;14792;50.886;6.468;2022-09-09T06:58:52;9.20;;;1.35;;
27305;SDS011;14792;50.886;6.468;2022-09-09T07:01:51;4.97;;;1.30;;
27305;SDS011;14792;50.886;6.468;2022-09-09T07:04:52;7.20;;;1.45;;
27305;SDS011;14792;50.886;6.468;2022-09-09T07:07:54;8.70;;;1.77;;
27305;SDS011;14792;50.886;6.468;2022-09-09T07:11:06;7.92;;;1.60;;
27305;SDS011;14792;50.886;6.468;2022-09-09T07:14:04;7.22;;;1.60;;
27305;SDS011;14792;50.886;6.468;2022-09-09T07:17:06;12.55;;;2.00;;
27305;SDS011;14792;50.886;6.468;2022-09-09T07:20:07;9.63;;;2.10;;
27305;SDS011;14792;50.886;6.468;2022-09-09T07:23:09;6.55;;;2.33;;
27305;SDS011;14792;50.886;6.468;2022-09-09T07:26:11;8.08;;;1.60;;
27305;SDS011;14792;50.886;6.468;2022-09-09T07:29:12;5.40;;;1.30;;
27305;SDS011;14792;50.886;6.468;2022-09-09T07:32:16;5.80;;;1.55;;
27305;SDS011;14792;50.886;6.468;2022-09-09T07:35:18;10.35;;;1.67;;
27305;SDS011;14792;50.886;6.468;2022-09-09T07:38:19;9.83;;;1.90;;
27305;SDS011;14792;50.886;6.468;2022-09-09T07:41:25;6.92;;;1.72;;
27305;SDS011;14792;50.886;6.468;2022-09-09T07:44:23;10.25;;;1.92;;
27305;SDS011;14792;50.886;6.468;2022-09-09T07:47:24;8.43;;;1.50;;
27305;SDS011;14792;50.886;6.468;2022-09-09T07:50:26;10.95;;;1.87;;
27305;SDS011;14792;50.886;6.468;2022-09-09T07:53:27;6.35;;;1.47;;
27305;SDS011;14792;50.886;6.468;2022-09-09T07:56:29;5.30;;;1.50;;
27305;SDS011;14792;50.886;6.468;2022-09-09T07:59:30;9.70;;;1.47;;
27305;SDS011;14792;50.886;6.468;2022-09-09T08:02:32;7.08;;;1.60;;
27305;SDS011;14792;50.886;6.468;2022-09-09T08:05:34;7.05;;;1.60;;
27305;SDS011;14792;50.886;6.468;2022-09-09T08:08:35;6.08;;;1.67;;
27305;SDS011;14792;50.886;6.468;2022-09-09T08:11:37;7.22;;;1.30;;
27305;SDS011;14792;50.886;6.468;2022-09-09T08:14:38;7.35;;;1.57;;
27305;SDS011;14792;50.886;6.468;2022-09-09T08:17:40;6.60;;;1.50;;
27305;SDS011;14792;50.886;6.468;2022-09-09T08:20:41;4.85;;;1.15;;
27305;SDS011;14792;50.886;6.468;2022-09-09T08:23:44;4.10;;;1.22;;
27305;SDS011;14792;50.886;6.468;2022-09-09T08:26:46;5.65;;;1.42;;
27305;SDS011;14792;50.886;6.468;2022-09-09T08:29:46;9.33;;;1.40;;
27305;SDS011;14792;50.886;6.468;2022-09-09T08:32:48;6.47;;;1.40;;
27305;SDS011;14792;50.886;6.468;2022-09-09T08:35:50;8.30;;;1.27;;
27305;SDS011;14792;50.886;6.468;2022-09-09T08:38:54;5.20;;;1.10;;
27305;SDS011;14792;50.886;6.468;2022-09-09T08:45:09;3.25;;;1.10;;
27305;SDS011;14792;50.886;6.468;2022-09-09T08:51:27;5.80;;;1.10;;
27305;SDS011;14792;50.886;6.468;2022-09-09T08:54:30;4.28;;;1.12;;
27305;SDS011;14792;50.886;6.468;2022-09-09T08:57:30;5.05;;;1.32;;
27305;SDS011;14792;50.886;6.468;2022-09-09T09:00:34;3.72;;;0.98;;
27305;SDS011;14792;50.886;6.468;2022-09-09T09:19:47;4.05;;;1.00;;
27305;SDS011;14792;50.886;6.468;2022-09-09T09:22:49;5.17;;;1.20;;
27305;SDS011;14792;50.886;6.468;2022-09-09T09:25:50;7.37;;;1.20;;
27305;SDS011;14792;50.886;6.468;2022-09-09T09:28:52;4.80;;;1.27;;
27305;SDS011;14792;50.886;6.468;2022-09-09T09:31:56;9.20;;;1.52;;
27305;SDS011;14792;50.886;6.468;2022-09-09T09:34:57;4.87;;;0.88;;
27305;SDS011;14792;50.886;6.468;2022-09-09T09:37:59;6.72;;;1.37;;
27305;SDS011;14792;50.886;6.468;2022-09-09T09:41:00;6.83;;;0.90;;
27305;SDS011;14792;50.886;6.468;2022-09-09T09:44:03;5.28;;;0.90;;
27305;SDS011;14792;50.886;6.468;2022-09-09T09:47:07;3.92;;;1.10;;
27305;SDS011;14792;50.886;6.468;2022-09-09T09:50:17;3.10;;;0.65;;
27305;SDS011;14792;50.886;6.468;2022-09-09T09:53:21;4.50;;;0.60;;
27305;SDS011;14792;50.886;6.468;2022-09-09T09:56:28;6.10;;;1.00;;
27305;SDS011;14792;50.886;6.468;2022-09-09T09:59:36;3.50;;;0.90;;
27305;SDS011;14792;50.886;6.468;2022-09-09T10:02:38;3.58;;;0.60;;
27305;SDS011;14792;50.886;6.468;2022-09-09T10:05:44;2.08;;;0.82;;
27305;SDS011;14792;50.886;6.468;2022-09-09T10:08:44;6.92;;;1.10;;
27305;SDS011;14792;50.886;6.468;2022-09-09T10:28:27;3.55;;;0.80;;
27305;SDS011;14792;50.886;6.468;2022-09-09T10:31:30;2.47;;;1.00;;
27305;SDS011;14792;50.886;6.468;2022-09-09T10:41:16;4.55;;;0.78;;
27305;SDS011;14792;50.886;6.468;2022-09-09T10:44:22;5.80;;;0.98;;
27305;SDS011;14792;50.886;6.468;2022-09-09T10:47:24;3.83;;;1.45;;
27305;SDS011;14792;50.886;6.468;2022-09-09T10:53:36;4.33;;;1.05;;
27305;SDS011;14792;50.886;6.468;2022-09-09T10:56:58;4.12;;;0.82;;
27305;SDS011;14792;50.886;6.468;2022-09-09T11:00:05;3.37;;;1.00;;
27305;SDS011;14792;50.886;6.468;2022-09-09T11:03:05;9.40;;;1.00;;
27305;SDS011;14792;50.886;6.468;2022-09-09T11:06:14;3.72;;;1.32;;
27305;SDS011;14792;50.886;6.468;2022-09-09T11:09:20;5.53;;;1.05;;
27305;SDS011;14792;50.886;6.468;2022-09-09T11:12:25;6.17;;;1.20;;
27305;SDS011;14792;50.886;6.468;2022-09-09T11:15:35;3.08;;;1.15;;
27305;SDS011;14792;50.886;6.468;2022-09-09T11:18:31;7.35;;;1.30;;
27305;SDS011;14792;50.886;6.468;2022-09-09T11:21:35;7.95;;;1.47;;
27305;SDS011;14792;50.886;6.468;2022-09-09T11:24:38;6.37;;;0.93;;
27305;SDS011;14792;50.886;6.468;2022-09-09T11:38:00;4.70;;;1.15;;
27305;SDS011;14792;50.886;6.468;2022-09-09T11:41:15;2.52;;;0.95;;
27305;SDS011;14792;50.886;6.468;2022-09-09T11:44:18;4.95;;;0.80;;
27305;SDS011;14792;50.886;6.468;2022-09-09T11:47:28;5.08;;;1.00;;
27305;SDS011;14792;50.886;6.468;2022-09-09T11:50:36;8.40;;;1.47;;
27305;SDS011;14792;50.886;6.468;2022-09-09T11:53:52;4.85;;;1.02;;
27305;SDS011;14792;50.886;6.468;2022-09-09T11:56:53;7.62;;;1.20;;
27305;SDS011;14792;50.886;6.468;2022-09-09T11:59:55;5.55;;;1.12;;
27305;SDS011;14792;50.886;6.468;2022-09-09T12:02:56;4.92;;;1.20;;
27305;SDS011;14792;50.886;6.468;2022-09-09T12:05:58;5.47;;;1.07;;
27305;SDS011;14792;50.886;6.468;2022-09-09T12:12:23;7.45;;;1.45;;
27305;SDS011;14792;50.886;6.468;2022-09-09T12:15:27;5.05;;;1.10;;
27305;SDS011;14792;50.886;6.468;2022-09-09T12:24:38;5.55;;;1.22;;
27305;SDS011;14792;50.886;6.468;2022-09-09T12:30:49;4.80;;;1.05;;
27305;SDS011;14792;50.886;6.468;2022-09-09T12:33:53;4.97;;;1.37;;
27305;SDS011;14792;50.886;6.468;2022-09-09T12:36:57;4.75;;;1.15;;
27305;SDS011;14792;50.886;6.468;2022-09-09T12:39:58;5.67;;;1.17;;
27305;SDS011;14792;50.886;6.468;2022-09-09T12:42:58;5.85;;;1.17;;
27305;SDS011;14792;50.886;6.468;2022-09-09T12:46:01;5.00;;;0.93;;
27305;SDS011;14792;50.886;6.468;2022-09-09T12:49:02;3.27;;;1.00;;
27305;SDS011;14792;50.886;6.468;2022-09-09T12:52:13;6.10;;;1.37;;
27305;SDS011;14792;50.886;6.468;2022-09-09T12:55:05;8.38;;;1.47;;
27305;SDS011;14792;50.886;6.468;2022-09-09T12:58:06;7.75;;;1.20;;
27305;SDS011;14792;50.886;6.468;2022-09-09T13:01:17;3.80;;;0.90;;
27305;SDS011;14792;50.886;6.468;2022-09-09T13:04:19;4.95;;;1.22;;
27305;SDS011;14792;50.886;6.468;2022-09-09T13:07:18;3.65;;;0.88;;
27305;SDS011;14792;50.886;6.468;2022-09-09T13:10:23;4.05;;;1.00;;
27305;SDS011;14792;50.886;6.468;2022-09-09T13:13:26;4.75;;;1.00;;
27305;SDS011;14792;50.886;6.468;2022-09-09T13:16:28;4.15;;;0.93;;
27305;SDS011;14792;50.886;6.468;2022-09-09T13:19:29;4.50;;;1.40;;
27305;SDS011;14792;50.886;6.468;2022-09-09T13:22:37;6.15;;;1.15;;
27305;SDS011;14792;50.886;6.468;2022-09-09T13:25:38;3.35;;;1.17;;
27305;SDS011;14792;50.886;6.468;2022-09-09T13:28:39;3.80;;;0.80;;
27305;SDS011;14792;50.886;6.468;2022-09-09T13:31:41;2.87;;;1.00;;
27305;SDS011;14792;50.886;6.468;2022-09-09T13:34:55;4.17;;;1.00;;
27305;SDS011;14792;50.886;6.468;2022-09-09T13:37:53;4.10;;;1.12;;
27305;SDS011;14792;50.886;6.468;2022-09-09T13:40:58;3.10;;;0.98;;
27305;SDS011;14792;50.886;6.468;2022-09-09T13:43:59;4.65;;;1.07;;
27305;SDS011;14792;50.886;6.468;2022-09-09T13:47:04;6.10;;;0.88;;
27305;SDS011;14792;50.886;6.468;2022-09-09T13:53:22;3.35;;;1.00;;
27305;SDS011;14792;50.886;6.468;2022-09-09T13:56:23;6.53;;;1.27;;
27305;SDS011;14792;50.886;6.468;2022-09-09T13:59:25;7.28;;;0.88;;
27305;SDS011;14792;50.886;6.468;2022-09-09T14:02:26;4.10;;;0.85;;
27305;SDS011;14792;50.886;6.468;2022-09-09T14:05:28;2.20;;;0.65;;
27305;SDS011;14792;50.886;6.468;2022-09-09T14:08:29;5.97;;;1.00;;
27305;SDS011;14792;50.886;6.468;2022-09-09T14:11:31;5.60;;;0.98;;
27305;SDS011;14792;50.886;6.468;2022-09-09T14:14:33;3.42;;;1.07;;
27305;SDS011;14792;50.886;6.468;2022-09-09T14:17:34;4.20;;;0.90;;
27305;SDS011;14792;50.886;6.468;2022-09-09T14:20:36;3.87;;;1.10;;
27305;SDS011;14792;50.886;6.468;2022-09-09T14:23:38;4.45;;;0.98;;
27305;SDS011;14792;50.886;6.468;2022-09-09T14:26:39;4.80;;;0.90;;
27305;SDS011;14792;50.886;6.468;2022-09-09T14:29:41;3.42;;;1.27;;
27305;SDS011;14792;50.886;6.468;2022-09-09T14:32:42;2.90;;;1.27;;
27305;SDS011;14792;50.886;6.468;2022-09-09T14:35:44;4.37;;;1.20;;
27305;SDS011;14792;50.886;6.468;2022-09-09T14:38:45;3.90;;;0.70;;
27305;SDS011;14792;50.886;6.468;2022-09-09T14:41:47;4.35;;;0.90;;
27305;SDS011;14792;50.886;6.468;2022-09-09T14:44:48;5.15;;;1.00;;
27305;SDS011;14792;50.886;6.468;2022-09-09T14:47:50;4.10;;;0.90;;
27305;SDS011;14792;50.886;6.468;2022-09-09T14:50:52;4.62;;;1.05;;
27305;SDS011;14792;50.886;6.468;2022-09-09T14:53:55;7.20;;;1.20;;
27305;SDS011;14792;50.886;6.468;2022-09-09T14:56:55;4.00;;;1.20;;
27305;SDS011;14792;50.886;6.468;2022-09-09T14:59:56;3.10;;;1.05;;
27305;SDS011;14792;50.886;6.468;2022-09-09T15:02:58;4.05;;;0.80;;
27305;SDS011;14792;50.886;6.468;2022-09-09T15:06:04;4.33;;;0.90;;
27305;SDS011;14792;50.886;6.468;2022-09-09T15:12:03;2.25;;;1.00;;
27305;SDS011;14792;50.886;6.468;2022-09-09T15:15:05;4.28;;;1.00;;
27305;SDS011;14792;50.886;6.468;2022-09-09T15:18:06;2.75;;;0.95;;
27305;SDS011;14792;50.886;6.468;2022-09-09T15:21:15;3.65;;;1.00;;
27305;SDS011;14792;50.886;6.468;2022-09-09T15:24:15;2.87;;;0.80;;
27305;SDS011;14792;50.886;6.468;2022-09-09T15:27:17;2.15;;;0.80;;
27305;SDS011;14792;50.886;6.468;2022-09-09T15:30:19;2.83;;;0.82;;
27305;SDS011;14792;50.886;6.468;2022-09-09T15:33:21;1.95;;;0.60;;
27305;SDS011;14792;50.886;6.468;2022-09-09T15:36:22;2.22;;;0.70;;
27305;SDS011;14792;50.886;6.468;2022-09-09T15:39:23;1.52;;;0.65;;
27305;SDS011;14792;50.886;6.468;2022-09-09T15:42:25;2.22;;;0.70;;
27305;SDS011;14792;50.886;6.468;2022-09-09T15:45:26;3.08;;;0.78;;
27305;SDS011;14792;50.886;6.468;2022-09-09T15:48:31;2.80;;;0.70;;
27305;SDS011;14792;50.886;6.468;2022-09-09T15:51:33;2.77;;;0.82;;
27305;SDS011;14792;50.886;6.468;2022-09-09T15:54:35;1.67;;;0.70;;
27305;SDS011;14792;50.886;6.468;2022-09-09T15:57:36;3.02;;;0.90;;
27305;SDS011;14792;50.886;6.468;2022-09-09T16:00:37;3.65;;;1.02;;
27305;SDS011;14792;50.886;6.468;2022-09-09T16:03:40;3.08;;;1.00;;
27305;SDS011;14792;50.886;6.468;2022-09-09T16:06:41;2.98;;;1.12;;
27305;SDS011;14792;50.886;6.468;2022-09-09T16:09:42;4.60;;;1.00;;
27305;SDS011;14792;50.886;6.468;2022-09-09T16:12:44;4.90;;;1.00;;
27305;SDS011;14792;50.886;6.468;2022-09-09T16:15:45;4.33;;;0.85;;
27305;SDS011;14792;50.886;6.468;2022-09-09T16:18:48;2.77;;;0.80;;
27305;SDS011;14792;50.886;6.468;2022-09-09T16:21:49;2.12;;;0.80;;
27305;SDS011;14792;50.886;6.468;2022-09-09T16:24:50;2.87;;;1.20;;
27305;SDS011;14792;50.886;6.468;2022-09-09T16:27:52;2.70;;;0.82;;
27305;SDS011;14792;50.886;6.468;2022-09-09T16:30:53;5.00;;;1.20;;
27305;SDS011;14792;50.886;6.468;2022-09-09T16:33:55;2.25;;;0.60;;
27305;SDS011;14792;50.886;6.468;2022-09-09T16:36:57;3.80;;;0.78;;
27305;SDS011;14792;50.886;6.468;2022-09-09T16:39:58;2.37;;;0.68;;
27305;SDS011;14792;50.886;6.468;2022-09-09T16:43:00;2.50;;;0.78;;
27305;SDS011;14792;50.886;6.468;2022-09-09T16:46:02;2.83;;;0.80;;
27305;SDS011;14792;50.886;6.468;2022-09-09T16:49:12;2.98;;;0.70;;
27305;SDS011;14792;50.886;6.468;2022-09-09T16:52:13;3.67;;;0.80;;
27305;SDS011;14792;50.886;6.468;2022-09-09T16:55:15;2.52;;;0.88;;
27305;SDS011;14792;50.886;6.468;2022-09-09T16:58:16;4.60;;;0.62;;
27305;SDS011;14792;50.886;6.468;2022-09-09T17:01:18;1.80;;;0.60;;
27305;SDS011;14792;50.886;6.468;2022-09-09T17:04:25;2.95;;;0.95;;
27305;SDS011;14792;50.886;6.468;2022-09-09T17:07:24;2.92;;;0.72;;
27305;SDS011;14792;50.886;6.468;2022-09-09T17:10:25;2.70;;;0.98;;
27305;SDS011;14792;50.886;6.468;2022-09-09T17:13:27;4.05;;;1.02;;
27305;SDS011;14792;50.886;6.468;2022-09-09T17:16:30;2.95;;;1.00;;
27305;SDS011;14792;50.886;6.468;2022-09-09T17:19:30;3.12;;;0.88;;
27305;SDS011;14792;50.886;6.468;2022-09-09T17:22:32;2.10;;;0.70;;
27305;SDS011;14792;50.886;6.468;2022-09-09T17:25:33;1.67;;;0.75;;
27305;SDS011;14792;50.886;6.468;2022-09-09T17:28:36;4.40;;;0.90;;
27305;SDS011;14792;50.886;6.468;2022-09-09T17:31:37;3.10;;;1.00;;
27305;SDS011;14792;50.886;6.468;2022-09-09T17:34:38;3.58;;;0.95;;
27305;SDS011;14792;50.886;6.468;2022-09-09T17:37:40;4.28;;;1.12;;
27305;SDS011;14792;50.886;6.468;2022-09-09T17:40:41;2.70;;;0.90;;
27305;SDS011;14792;50.886;6.468;2022-09-09T17:43:43;3.02;;;1.02;;
27305;SDS011;14792;50.886;6.468;2022-09-09T17:46:45;3.60;;;1.35;;
27305;SDS011;14792;50.886;6.468;2022-09-09T17:49:46;3.42;;;1.10;;
27305;SDS011;14792;50.886;6.468;2022-09-09T17:52:48;6.20;;;1.60;;
27305;SDS011;14792;50.886;6.468;2022-09-09T17:55:49;4.33;;;0.90;;
27305;SDS011;14792;50.886;6.468;2022-09-09T17:58:51;2.92;;;0.90;;
27305;SDS011;14792;50.886;6.468;2022-09-09T18:01:52;5.20;;;1.20;;
27305;SDS011;14792;50.886;6.468;2022-09-09T18:04:54;5.22;;;1.05;;
27305;SDS011;14792;50.886;6.468;2022-09-09T18:07:56;5.60;;;1.10;;
27305;SDS011;14792;50.886;6.468;2022-09-09T18:10:57;5.22;;;1.00;;
27305;SDS011;14792;50.886;6.468;2022-09-09T18:14:00;4.58;;;1.30;;
27305;SDS011;14792;50.886;6.468;2022-09-09T18:17:01;4.10;;;1.17;;
27305;SDS011;14792;50.886;6.468;2022-09-09T18:20:02;4.55;;;1.22;;
27305;SDS011;14792;50.886;6.468;2022-09-09T18:23:04;3.55;;;1.00;;
27305;SDS011;14792;50.886;6.468;2022-09-09T18:26:06;2.77;;;0.95;;
27305;SDS011;14792;50.886;6.468;2022-09-09T18:29:10;4.60;;;1.10;;
27305;SDS011;14792;50.886;6.468;2022-09-09T18:32:08;4.78;;;1.30;;
27305;SDS011;14792;50.886;6.468;2022-09-09T18:35:10;5.30;;;1.57;;
27305;SDS011;14792;50.886;6.468;2022-09-09T18:38:11;8.00;;;1.57;;
27305;SDS011;14792;50.886;6.468;2022-09-09T18:41:17;2.98;;;0.70;;
27305;SDS011;14792;50.886;6.468;2022-09-09T18:44:19;5.30;;;1.30;;
27305;SDS011;14792;50.886;6.468;2022-09-09T18:47:19;2.95;;;1.42;;
27305;SDS011;14792;50.886;6.468;2022-09-09T18:50:21;3.98;;;1.25;;
27305;SDS011;14792;50.886;6.468;2022-09-09T18:53:22;4.22;;;1.25;;
27305;SDS011;14792;50.886;6.468;2022-09-09T18:56:24;3.08;;;1.30;;
27305;SDS011;14792;50.886;6.468;2022-09-09T18:59:26;5.05;;;1.10;;
27305;SDS011;14792;50.886;6.468;2022-09-09T19:02:27;3.60;;;0.88;;
27305;SDS011;14792;50.886;6.468;2022-09-09T19:05:29;2.80;;;1.10;;
27305;SDS011;14792;50.886;6.468;2022-09-09T19:08:32;5.62;;;1.22;;
27305;SDS011;14792;50.886;6.468;2022-09-09T19:11:32;2.87;;;1.07;;
27305;SDS011;14792;50.886;6.468;2022-09-09T19:14:33;5.28;;;1.22;;
27305;SDS011;14792;50.886;6.468;2022-09-09T19:17:35;6.80;;;1.50;;
27305;SDS011;14792;50.886;6.468;2022-09-09T19:20:37;3.10;;;1.12;;
27305;SDS011;14792;50.886;6.468;2022-09-09T19:23:38;6.25;;;1.20;;
27305;SDS011;14792;50.886;6.468;2022-09-09T19:26:41;4.33;;;1.10;;
27305;SDS011;14792;50.886;6.468;2022-09-09T19:29:41;3.27;;;0.93;;
27305;SDS011;14792;50.886;6.468;2022-09-09T19:32:43;5.47;;;1.50;;
27305;SDS011;14792;50.886;6.468;2022-09-09T19:35:45;7.70;;;1.10;;
27305;SDS011;14792;50.886;6.468;2022-09-09T19:38:46;3.37;;;1.07;;
27305;SDS011;14792;50.886;6.468;2022-09-09T19:41:48;4.03;;;1.22;;
27305;SDS011;14792;50.886;6.468;2022-09-09T19:44:49;6.25;;;1.27;;
27305;SDS011;14792;50.886;6.468;2022-09-09T19:47:51;7.28;;;1.15;;
27305;SDS011;14792;50.886;6.468;2022-09-09T19:50:53;3.30;;;1.05;;
27305;SDS011;14792;50.886;6.468;2022-09-09T19:53:56;4.92;;;1.20;;
27305;SDS011;14792;50.886;6.468;2022-09-09T19:56:58;2.92;;;1.02;;
27305;SDS011;14792;50.886;6.468;2022-09-09T20:00:00;4.60;;;0.93;;
27305;SDS011;14792;50.886;6.468;2022-09-09T20:03:01;6.42;;;1.30;;
27305;SDS011;14792;50.886;6.468;2022-09-09T20:06:04;7.72;;;1.30;;